Time;durP1;ratioP1;P1;durP2;ratioP2;P2;SDS_P1;SDS_P2;PMS_P1;PMS_P2;Temp;Humidity;BMP_temperature;BMP_pressure;BME280_temperature;BME280_humidity;BME280_pressure;Samples;Min_cycle;Max_cycle;Signal;HPM_P1;HPM_P2
2023/08/01 00:02:16;;;;;;;20.70;1.80;;;;;;;12.88;100.00;98728.91;5047804;28;20048;-62
2023/08/01 00:04:41;;;;;;;5.18;0.80;;;;;;;12.84;100.00;98720.38;5047793;28;20044;-61
2023/08/01 00:07:07;;;;;;;19.27;1.30;;;;;;;12.80;100.00;98718.81;5048012;28;20041;-61
2023/08/01 00:09:32;;;;;;;8.45;1.17;;;;;;;12.81;100.00;98723.13;5046605;28;20017;-60
2023/08/01 00:11:57;;;;;;;44.30;2.85;;;;;;;12.84;100.00;98725.56;5046594;28;20017;-60
2023/08/01 00:14:26;;;;;;;45.35;2.70;;;;;;;12.86;100.00;98722.94;5047362;28;20478;-61
2023/08/01 00:16:51;;;;;;;23.85;1.42;;;;;;;12.83;100.00;98729.09;5047298;28;20025;-62
2023/08/01 00:19:17;;;;;;;17.42;2.00;;;;;;;12.82;100.00;98726.56;5047437;28;20100;-61
2023/08/01 00:21:43;;;;;;;42.28;2.60;;;;;;;12.78;100.00;98723.25;5047558;28;20017;-61
2023/08/01 00:24:08;;;;;;;26.73;1.63;;;;;;;12.73;100.00;98717.44;5028917;28;20044;-62
2023/08/01 00:26:34;;;;;;;20.45;1.77;;;;;;;12.73;100.00;98720.03;5047514;28;20025;-64
2023/08/01 00:29:00;;;;;;;27.10;1.73;;;;;;;12.64;100.00;98716.91;5046971;28;20021;-63
2023/08/01 00:31:26;;;;;;;6.55;1.20;;;;;;;12.63;100.00;98715.25;5047484;28;20068;-63
2023/08/01 00:33:51;;;;;;;1.17;0.93;;;;;;;12.63;100.00;98716.97;5047387;28;20021;-62
2023/08/01 00:36:17;;;;;;;10.57;0.88;;;;;;;12.58;100.00;98713.72;5047113;28;20025;-64
2023/08/01 00:38:43;;;;;;;10.25;1.17;;;;;;;12.56;100.00;98713.78;5029132;28;20337;-63
2023/08/01 00:41:11;;;;;;;1.70;0.90;;;;;;;12.51;100.00;98708.81;5047382;28;20033;-63
2023/08/01 00:43:37;;;;;;;7.10;0.80;;;;;;;12.50;100.00;98712.31;5047215;28;20085;-63
2023/08/01 00:46:05;;;;;;;3.00;0.70;;;;;;;12.48;100.00;98711.53;5047122;28;20116;-64
2023/08/01 00:48:31;;;;;;;6.05;1.20;;;;;;;12.48;100.00;98710.69;5047041;28;20028;-64
2023/08/01 00:51:04;;;;;;;0.85;0.60;;;;;;;12.46;100.00;98715.13;5047123;28;20033;-64
2023/08/01 00:53:30;;;;;;;7.75;1.52;;;;;;;12.41;100.00;98710.13;5047070;28;20022;-63
2023/08/01 00:55:56;;;;;;;4.78;1.40;;;;;;;12.41;100.00;98709.28;5047059;28;20120;-64
2023/08/01 00:58:21;;;;;;;2.00;0.88;;;;;;;12.36;100.00;98699.06;5046491;28;20022;-64
2023/08/01 01:00:47;;;;;;;5.70;1.13;;;;;;;12.38;100.00;98708.47;5046914;28;20095;-64
2023/08/01 01:03:14;;;;;;;4.35;1.35;;;;;;;12.41;100.00;98706.66;5046735;28;20021;-63
2023/08/01 01:05:47;;;;;;;10.35;1.27;;;;;;;12.39;100.00;98701.53;5046672;28;20032;-64
2023/08/01 01:08:12;;;;;;;23.48;1.70;;;;;;;12.34;100.00;98696.53;5046912;28;20029;-64
2023/08/01 01:10:38;;;;;;;27.45;2.13;;;;;;;12.41;100.00;98701.47;5046674;28;20029;-64
2023/08/01 01:13:03;;;;;;;17.85;1.88;;;;;;;12.42;100.00;98690.13;5046546;28;20081;-62
2023/08/01 01:15:29;;;;;;;8.93;1.50;;;;;;;12.43;100.00;98690.06;5046593;28;20039;-63
2023/08/01 01:17:54;;;;;;;1.02;0.77;;;;;;;12.42;100.00;98679.72;5046042;28;20093;-62
2023/08/01 01:20:22;;;;;;;5.70;1.15;;;;;;;12.44;100.00;98688.31;5046667;28;20094;-64
2023/08/01 01:22:50;;;;;;;13.45;1.58;;;;;;;12.42;100.00;98667.56;5046517;28;20021;-63
2023/08/01 01:25:15;;;;;;;3.15;0.98;;;;;;;12.43;100.00;98665.81;5046411;28;20045;-63
2023/08/01 01:27:42;;;;;;;23.40;1.70;;;;;;;12.40;100.00;98666.78;5046516;28;20048;-63
2023/08/01 01:30:08;;;;;;;16.05;1.55;;;;;;;12.44;100.00;98662.28;5046355;28;20017;-63
2023/08/01 01:32:34;;;;;;;22.05;2.13;;;;;;;12.45;100.00;98656.16;5046039;28;20093;-63
2023/08/01 01:35:02;;;;;;;17.25;1.50;;;;;;;12.47;100.00;98654.34;5044857;28;20088;-63
2023/08/01 01:37:28;;;;;;;16.92;2.03;;;;;;;12.50;100.00;98646.41;5045977;28;20065;-63
2023/08/01 01:39:53;;;;;;;21.38;1.38;;;;;;;12.48;100.00;98638.66;5046250;28;20022;-64
2023/08/01 01:42:19;;;;;;;47.22;2.80;;;;;;;12.56;100.00;98645.25;5046090;28;20059;-63
2023/08/01 01:44:44;;;;;;;31.95;2.42;;;;;;;12.55;100.00;98631.44;5046068;28;20159;-63
2023/08/01 01:47:10;;;;;;;29.10;1.58;;;;;;;12.58;100.00;98636.50;5046074;28;20106;-64
2023/08/01 01:49:35;;;;;;;30.30;2.33;;;;;;;12.59;100.00;98625.16;5045761;28;20044;-63
2023/08/01 01:52:01;;;;;;;36.28;2.33;;;;;;;12.60;100.00;98636.44;5046043;28;20022;-63
2023/08/01 01:54:26;;;;;;;20.75;1.50;;;;;;;12.65;100.00;98631.84;5045732;28;20034;-63
2023/08/01 01:56:51;;;;;;;10.43;1.27;;;;;;;12.67;100.00;98626.59;5045940;28;20030;-62
2023/08/01 01:59:17;;;;;;;32.88;2.35;;;;;;;12.69;100.00;98630.78;5045321;28;20025;-63
2023/08/01 02:01:42;;;;;;;14.90;1.70;;;;;;;12.67;100.00;98634.38;5044636;28;20021;-62
2023/08/01 02:04:07;;;;;;;30.17;2.05;;;;;;;12.69;100.00;98628.19;5044916;28;20048;-63
2023/08/01 02:06:33;;;;;;;98.70;4.35;;;;;;;12.64;100.00;98628.41;5045784;28;20060;-63
2023/08/01 02:08:58;;;;;;;41.70;2.20;;;;;;;12.66;100.00;98625.72;5045573;28;20025;-63
2023/08/01 02:11:23;;;;;;;60.70;3.17;;;;;;;12.67;100.00;98621.38;5027908;28;20051;-63
2023/08/01 02:13:49;;;;;;;57.90;3.03;;;;;;;12.68;100.00;98623.06;5045145;28;20073;-63
2023/08/01 02:16:14;;;;;;;66.13;4.05;;;;;;;12.70;100.00;98619.44;5045261;28;20068;-63
2023/08/01 02:18:40;;;;;;;43.45;2.58;;;;;;;12.72;100.00;98614.16;5045188;28;20041;-63
2023/08/01 02:21:05;;;;;;;17.13;1.60;;;;;;;12.74;100.00;98620.16;5045677;28;20028;-63
2023/08/01 02:23:31;;;;;;;31.85;2.85;;;;;;;12.75;100.00;98611.44;5045492;28;20109;-64
2023/08/01 02:25:56;;;;;;;52.53;2.92;;;;;;;12.75;100.00;98609.69;5045245;28;20483;-64
2023/08/01 02:28:22;;;;;;;26.35;1.42;;;;;;;12.71;100.00;98609.88;5045445;28;20018;-63
2023/08/01 02:30:47;;;;;;;16.83;1.30;;;;;;;12.75;100.00;98608.81;5045241;28;20021;-63
2023/08/01 02:33:12;;;;;;;72.93;4.10;;;;;;;12.75;100.00;98608.81;5045361;28;20025;-63
2023/08/01 02:35:38;;;;;;;49.55;2.58;;;;;;;12.72;100.00;98603.75;5045568;28;20021;-63
2023/08/01 02:38:03;;;;;;;76.70;3.35;;;;;;;12.72;100.00;98603.75;5045235;28;20024;-63
2023/08/01 02:40:29;;;;;;;102.07;4.63;;;;;;;12.71;100.00;98597.72;5045409;28;20029;-63
2023/08/01 02:42:54;;;;;;;15.20;2.13;;;;;;;12.75;100.00;98604.47;5045341;28;20412;-63
2023/08/01 02:45:20;;;;;;;38.17;2.78;;;;;;;12.71;100.00;98600.34;5045473;28;20032;-63
2023/08/01 02:47:45;;;;;;;39.20;2.88;;;;;;;12.73;100.00;98602.88;5049526;28;20107;-63
2023/08/01 02:50:11;;;;;;;34.03;2.92;;;;;;;12.70;100.00;98605.59;5051675;28;20474;-64
2023/08/01 02:52:36;;;;;;;57.20;2.83;;;;;;;12.66;100.00;98604.03;5051920;28;20095;-64
2023/08/01 02:55:01;;;;;;;48.95;3.45;;;;;;;12.63;100.00;98598.09;5051778;28;20018;-65
2023/08/01 02:57:27;;;;;;;32.90;1.48;;;;;;;12.63;100.00;98595.47;5051742;28;20495;-64
2023/08/01 02:59:53;;;;;;;62.25;2.85;;;;;;;12.63;100.00;98595.47;5051855;28;20087;-64
2023/08/01 03:02:19;;;;;;;58.20;3.10;;;;;;;12.64;100.00;98594.56;5051531;28;20079;-64
2023/08/01 03:04:44;;;;;;;45.08;3.60;;;;;;;12.67;100.00;98592.75;5051573;28;20025;-64
2023/08/01 03:07:09;;;;;;;76.68;3.50;;;;;;;12.68;100.00;98587.47;5051509;28;20089;-64
2023/08/01 03:09:35;;;;;;;77.85;4.60;;;;;;;12.71;100.00;98586.47;5051617;28;20021;-64
2023/08/01 03:12:00;;;;;;;58.35;2.92;;;;;;;12.74;100.00;98588.91;5051532;28;20029;-64
2023/08/01 03:14:25;;;;;;;43.30;3.28;;;;;;;12.75;100.00;98588.00;5051445;28;20045;-63
2023/08/01 03:16:51;;;;;;;58.88;2.45;;;;;;;12.68;100.00;98576.19;5051753;28;20036;-64
2023/08/01 03:19:16;;;;;;;70.00;3.72;;;;;;;12.78;100.00;98587.84;5051221;28;20021;-64
2023/08/01 03:21:42;;;;;;;34.33;3.40;;;;;;;12.81;100.00;98576.47;5051466;28;20025;-64
2023/08/01 03:24:08;;;;;;;44.90;2.70;;;;;;;12.83;100.00;98582.41;5051383;28;20112;-63
2023/08/01 03:26:34;;;;;;;12.25;0.80;;;;;;;12.82;100.00;98586.81;5051719;28;20025;-64
2023/08/01 03:29:00;;;;;;;67.93;3.70;;;;;;;12.83;100.00;98585.03;5051365;28;20093;-63
2023/08/01 03:31:25;;;;;;;60.70;3.35;;;;;;;12.83;100.00;98578.06;5051346;28;20053;-64
2023/08/01 03:33:51;;;;;;;113.30;5.60;;;;;;;12.83;100.00;98578.06;5051246;28;20092;-64
2023/08/01 03:36:16;;;;;;;105.45;5.65;;;;;;;12.85;100.00;98573.63;5051475;28;20033;-64
2023/08/01 03:38:41;;;;;;;101.95;4.13;;;;;;;12.89;100.00;98575.16;5051442;28;20018;-64
2023/08/01 03:41:07;;;;;;;101.88;4.63;;;;;;;12.92;100.00;98562.94;5051169;28;20029;-63
2023/08/01 03:43:32;;;;;;;73.25;4.47;;;;;;;12.91;100.00;98563.84;5051225;28;20021;-64
2023/08/01 03:45:58;;;;;;;54.30;3.42;;;;;;;12.92;100.00;98568.13;5051256;28;20021;-64
2023/08/01 03:48:23;;;;;;;37.28;3.00;;;;;;;12.98;100.00;98562.63;5050964;28;20040;-64
2023/08/01 03:50:48;;;;;;;64.03;3.88;;;;;;;13.02;100.00;98565.00;5051361;28;20056;-65
2023/08/01 03:53:14;;;;;;;97.40;5.78;;;;;;;13.03;100.00;98555.44;5051244;28;20124;-64
2023/08/01 03:55:39;;;;;;;34.85;2.80;;;;;;;13.00;100.00;98543.41;5051169;28;20025;-64
2023/08/01 03:58:05;;;;;;;77.25;4.65;;;;;;;13.07;100.00;98556.13;5049700;28;20108;-63
2023/08/01 04:00:33;;;;;;;67.57;3.95;;;;;;;13.07;100.00;98550.91;5047844;28;20052;-65
2023/08/01 04:02:59;;;;;;;71.72;4.55;;;;;;;13.11;100.00;98547.25;5048136;28;20017;-65
2023/08/01 04:05:25;;;;;;;98.07;5.38;;;;;;;13.14;100.00;98552.31;5048070;28;20040;-64
2023/08/01 04:07:50;;;;;;;26.95;3.08;;;;;;;13.16;100.00;98541.81;5047925;28;20029;-64
2023/08/01 04:10:16;;;;;;;21.83;2.55;;;;;;;13.16;100.00;98541.81;5047859;28;20021;-63
2023/08/01 04:12:42;;;;;;;70.80;4.72;;;;;;;13.13;100.00;98535.81;5047996;28;20030;-64
2023/08/01 04:15:08;;;;;;;126.57;7.97;;;;;;;13.18;100.00;98529.56;5047829;28;20060;-64
2023/08/01 04:17:34;;;;;;;53.22;3.95;;;;;;;13.22;100.00;98531.09;5029719;28;20025;-64
2023/08/01 04:19:59;;;;;;;105.30;6.22;;;;;;;13.16;100.00;98519.22;5047567;28;20029;-64
2023/08/01 04:22:24;;;;;;;17.40;2.28;;;;;;;13.20;100.00;98530.31;5047813;28;20021;-64
2023/08/01 04:24:50;;;;;;;115.90;6.47;;;;;;;13.21;100.00;98526.81;5047618;28;20466;-63
2023/08/01 04:27:16;;;;;;;19.02;4.15;;;;;;;13.23;100.00;98531.00;5047637;28;20037;-63
2023/08/01 04:29:41;;;;;;;38.42;4.43;;;;;;;13.22;100.00;98524.13;5047450;28;20028;-64
2023/08/01 04:32:07;;;;;;;92.57;4.63;;;;;;;13.23;100.00;98519.72;5047258;28;20033;-64
2023/08/01 04:34:32;;;;;;;4.22;2.70;;;;;;;13.26;100.00;98530.84;5047051;28;20470;-64
2023/08/01 04:36:58;;;;;;;7.70;3.72;;;;;;;13.26;100.00;98535.22;5047290;28;20028;-64
2023/08/01 04:39:23;;;;;;;12.13;2.90;;;;;;;13.25;100.00;98526.56;5047071;28;20531;-64
2023/08/01 04:41:49;;;;;;;66.90;5.85;;;;;;;13.28;100.00;98533.38;5047306;28;20064;-64
2023/08/01 04:44:15;;;;;;;74.90;6.55;;;;;;;13.27;100.00;98529.09;5047237;28;20026;-64
2023/08/01 04:46:41;;;;;;;36.35;3.33;;;;;;;13.30;100.00;98536.75;5046961;28;20039;-64
2023/08/01 04:49:06;;;;;;;8.73;2.00;;;;;;;13.32;100.00;98529.69;5046933;28;20028;-63
2023/08/01 04:51:31;;;;;;;8.38;3.67;;;;;;;13.32;100.00;98523.66;5047040;28;20025;-63
2023/08/01 04:53:57;;;;;;;23.45;3.88;;;;;;;13.36;100.00;98530.38;5047105;28;20172;-63
2023/08/01 04:56:22;;;;;;;3.88;3.00;;;;;;;13.38;100.00;98534.63;5029183;28;20066;-64
2023/08/01 04:58:48;;;;;;;8.43;3.42;;;;;;;13.38;100.00;98532.03;5046961;28;20017;-64
2023/08/01 05:01:13;;;;;;;6.80;2.70;;;;;;;13.31;100.00;98521.94;5047047;28;20025;-64
2023/08/01 05:03:38;;;;;;;16.67;2.92;;;;;;;13.33;100.00;98535.75;5046471;28;20461;-64
2023/08/01 05:06:04;;;;;;;7.32;3.20;;;;;;;13.32;100.00;98521.88;5047043;28;20030;-63
2023/08/01 05:08:29;;;;;;;4.40;3.38;;;;;;;13.27;100.00;98527.31;5046839;28;20037;-63
2023/08/01 05:10:55;;;;;;;7.25;3.60;;;;;;;13.35;100.00;98534.78;5046445;28;20489;-63
2023/08/01 05:13:20;;;;;;;9.90;2.55;;;;;;;13.35;100.00;98526.09;5046452;28;20053;-64
2023/08/01 05:15:49;;;;;;;5.05;2.45;;;;;;;13.35;100.00;98523.50;5046813;28;20052;-64
2023/08/01 05:18:17;;;;;;;4.95;2.78;;;;;;;13.35;100.00;98520.91;5046452;28;20021;-64
2023/08/01 05:20:43;;;;;;;5.20;2.85;;;;;;;13.37;100.00;98525.09;5046608;28;20021;-63
2023/08/01 05:23:09;;;;;;;4.32;2.35;;;;;;;13.38;100.00;98505.09;5046270;28;20051;-63
2023/08/01 05:25:34;;;;;;;2.95;2.33;;;;;;;13.50;100.00;98512.31;5046635;28;20492;-63
2023/08/01 05:28:00;;;;;;;5.82;3.08;;;;;;;13.54;100.00;98517.38;5046540;28;20025;-65
2023/08/01 05:30:25;;;;;;;2.65;2.10;;;;;;;13.57;100.00;98517.22;5046211;28;20079;-63
2023/08/01 05:32:51;;;;;;;7.85;3.13;;;;;;;13.59;100.00;98515.38;5046307;28;20061;-64
2023/08/01 05:35:17;;;;;;;2.42;1.35;;;;;;;13.56;100.00;98505.13;5046124;28;20049;-64
2023/08/01 05:37:42;;;;;;;3.63;1.92;;;;;;;13.54;100.00;98512.16;5046311;28;20044;-63
2023/08/01 05:40:09;;;;;;;2.25;1.23;;;;;;;13.47;100.00;98511.59;5046020;28;20092;-63
2023/08/01 05:42:34;;;;;;;1.20;1.10;;;;;;;13.41;100.00;98517.13;5045991;28;20028;-63
2023/08/01 05:44:59;;;;;;;4.78;3.40;;;;;;;13.35;100.00;98515.69;5046179;28;20030;-64
2023/08/01 05:47:25;;;;;;;3.47;2.83;;;;;;;13.33;100.00;98518.38;5045980;28;20027;-63
2023/08/01 05:49:50;;;;;;;5.15;2.40;;;;;;;13.29;100.00;98509.00;5045835;28;20028;-63
2023/08/01 05:52:16;;;;;;;3.75;2.28;;;;;;;13.39;100.00;98509.38;5045916;28;20108;-63
2023/08/01 05:54:41;;;;;;;5.90;2.50;;;;;;;13.49;100.00;98509.75;5046110;28;20032;-63
2023/08/01 05:57:07;;;;;;;3.83;2.55;;;;;;;13.59;100.00;98513.63;5045775;28;20452;-63
2023/08/01 05:59:33;;;;;;;3.20;1.17;;;;;;;13.61;100.00;98511.75;5045427;28;20036;-63
2023/08/01 06:01:58;;;;;;;3.28;2.63;;;;;;;13.57;100.00;98497.22;5044388;28;20101;-62
2023/08/01 06:04:24;;;;;;;3.88;2.15;;;;;;;13.63;100.00;98504.72;5045172;28;20041;-62
2023/08/01 06:06:49;;;;;;;3.45;2.30;;;;;;;13.62;100.00;98505.66;5045774;28;20181;-62
2023/08/01 06:09:14;;;;;;;6.93;2.53;;;;;;;13.63;100.00;98501.25;5045663;28;20025;-62
2023/08/01 06:11:40;;;;;;;5.00;2.47;;;;;;;13.68;100.00;98498.41;5045643;28;20065;-62
2023/08/01 06:14:06;;;;;;;2.30;1.83;;;;;;;13.78;100.00;98506.59;5045347;28;20101;-63
2023/08/01 06:16:31;;;;;;;4.13;2.95;;;;;;;13.81;100.00;98501.22;5045718;28;20049;-63
2023/08/01 06:18:58;;;;;;;3.05;2.33;;;;;;;13.80;100.00;98504.75;5045451;28;20025;-62
2023/08/01 06:21:23;;;;;;;3.33;2.35;;;;;;;13.76;100.00;98501.47;5044934;28;20055;-62
2023/08/01 06:23:49;;;;;;;2.30;1.60;;;;;;;13.71;100.00;98498.25;5045741;28;20021;-63
2023/08/01 06:26:15;;;;;;;3.35;2.45;;;;;;;13.68;100.00;98495.81;5045405;28;20110;-62
2023/08/01 06:28:41;;;;;;;7.35;2.33;;;;;;;13.71;100.00;98490.44;5045514;28;20123;-62
2023/08/01 06:31:06;;;;;;;4.00;2.45;;;;;;;13.75;100.00;98497.19;5045374;28;20446;-61
2023/08/01 06:33:32;;;;;;;5.30;2.80;;;;;;;13.78;100.00;98494.41;5045008;28;20021;-62
2023/08/01 06:35:57;;;;;;;5.55;2.55;;;;;;;13.80;100.00;98484.72;5045506;28;20466;-60
2023/08/01 06:38:23;;;;;;;3.95;2.78;;;;;;;13.81;100.00;98485.56;5045323;28;20029;-63
2023/08/01 06:40:48;;;;;;;9.70;3.00;;;;;;;13.84;100.00;98485.41;5045314;28;20077;-61
2023/08/01 06:43:13;;;;;;;1.92;1.45;;;;;;;13.87;100.00;98486.09;5027439;28;20041;-62
2023/08/01 06:45:39;;;;;;;5.50;2.42;;;;;;;13.90;100.00;98486.88;5045143;28;20077;-60
2023/08/01 06:48:04;;;;;;;1.73;1.08;;;;;;;13.92;100.00;98490.22;5045009;28;20022;-62
2023/08/01 06:50:30;;;;;;;4.45;2.53;;;;;;;13.88;100.00;98482.56;5045135;28;20029;-61
2023/08/01 06:52:55;;;;;;;8.57;3.10;;;;;;;14.02;100.00;98485.34;5045460;28;20017;-65
2023/08/01 06:55:20;;;;;;;3.67;2.60;;;;;;;14.07;100.00;98492.03;5045254;28;20375;-61
2023/08/01 06:57:46;;;;;;;3.17;2.17;;;;;;;14.13;100.00;98493.44;5045281;28;20041;-63
2023/08/01 07:00:11;;;;;;;4.22;3.28;;;;;;;14.19;100.00;98493.13;5045023;28;20025;-62
2023/08/01 07:02:37;;;;;;;3.90;3.05;;;;;;;14.23;100.00;98485.97;5045163;28;20078;-62
2023/08/01 07:05:02;;;;;;;5.78;2.80;;;;;;;14.26;100.00;98488.41;5045013;28;20025;-62
2023/08/01 07:07:28;;;;;;;0.40;0.40;;;;;;;14.27;100.00;98484.88;5045100;28;20036;-61
2023/08/01 07:09:53;;;;;;;2.17;1.38;;;;;;;14.28;100.00;98488.31;5044774;28;20017;-61
2023/08/01 07:12:18;;;;;;;3.60;2.78;;;;;;;14.28;100.00;98493.53;5045100;28;20025;-61
2023/08/01 07:14:44;;;;;;;5.60;2.45;;;;;;;14.30;100.00;98495.13;5044771;28;20498;-61
2023/08/01 07:17:09;;;;;;;7.53;2.70;;;;;;;14.33;100.00;98494.97;5044838;28;20036;-61
2023/08/01 07:19:35;;;;;;;3.65;2.28;;;;;;;14.37;100.00;98488.66;5044370;28;20024;-61
2023/08/01 07:22:00;;;;;;;3.67;2.88;;;;;;;14.37;100.00;98493.03;5044943;28;20025;-62
2023/08/01 07:24:25;;;;;;;4.53;3.30;;;;;;;14.44;100.00;98485.72;5044884;28;20075;-61
2023/08/01 07:26:51;;;;;;;4.57;2.60;;;;;;;14.52;100.00;98483.50;5027193;28;20024;-62
2023/08/01 07:29:16;;;;;;;4.40;3.15;;;;;;;14.62;100.00;98489.06;5044689;28;20018;-62
2023/08/01 07:31:42;;;;;;;5.68;2.75;;;;;;;14.75;100.00;98479.59;5044715;28;20029;-62
2023/08/01 07:34:08;;;;;;;6.68;3.65;;;;;;;14.86;100.00;98489.47;5047401;28;20515;-63
2023/08/01 07:36:33;;;;;;;4.05;2.38;;;;;;;14.93;100.00;98482.13;5048459;28;20021;-62
2023/08/01 07:38:59;;;;;;;3.22;2.60;;;;;;;14.99;100.00;98481.78;5048635;28;20029;-62
2023/08/01 07:41:24;;;;;;;3.83;2.65;;;;;;;15.06;100.00;98479.66;5048234;28;20462;-63
2023/08/01 07:43:49;;;;;;;4.25;3.08;;;;;;;15.12;100.00;98475.84;5048447;28;20033;-62
2023/08/01 07:46:15;;;;;;;3.10;2.80;;;;;;;15.23;100.00;98473.44;5048409;28;20048;-61
2023/08/01 07:48:40;;;;;;;3.85;2.35;;;;;;;15.30;100.00;98478.28;5048154;28;20033;-61
2023/08/01 07:51:07;;;;;;;5.03;3.20;;;;;;;15.39;100.00;98476.91;5048388;28;20096;-62
2023/08/01 07:53:34;;;;;;;5.15;2.70;;;;;;;15.51;100.00;98475.34;5048186;28;20021;-63
2023/08/01 07:56:01;;;;;;;3.72;2.15;;;;;;;15.60;100.00;98473.00;5048296;28;20029;-62
2023/08/01 07:58:27;;;;;;;1.90;1.38;;;;;;;15.75;100.00;98483.44;5048252;28;20018;-62
2023/08/01 08:00:52;;;;;;;4.03;2.10;;;;;;;15.81;100.00;98477.03;5048162;28;20079;-62
2023/08/01 08:03:18;;;;;;;3.92;2.40;;;;;;;15.93;100.00;98485.88;5047951;28;20458;-61
2023/08/01 08:05:44;;;;;;;5.80;2.60;;;;;;;16.04;100.00;98478.22;5047947;28;20083;-61
2023/08/01 08:08:10;;;;;;;2.40;2.15;;;;;;;16.09;100.00;98470.94;5048031;28;20118;-61
2023/08/01 08:10:35;;;;;;;3.22;2.30;;;;;;;16.14;100.00;98485.50;5047922;28;20033;-61
2023/08/01 08:13:01;;;;;;;4.15;2.45;;;;;;;16.18;100.00;98476.53;5046414;28;20489;-62
2023/08/01 08:15:26;;;;;;;2.92;2.47;;;;;;;16.20;100.00;98475.50;5047634;28;20021;-61
2023/08/01 08:17:52;;;;;;;7.03;3.30;;;;;;;16.24;100.00;98484.00;5046442;28;20088;-61
2023/08/01 08:20:17;;;;;;;3.78;2.20;;;;;;;16.24;100.00;98468.31;5047717;28;20048;-61
2023/08/01 08:22:43;;;;;;;9.07;2.53;;;;;;;16.38;100.00;98483.13;5047837;28;20030;-60
2023/08/01 08:25:08;;;;;;;4.85;2.78;;;;;;;16.47;100.00;98479.91;5047493;28;20025;-61
2023/08/01 08:27:34;;;;;;;6.43;3.20;;;;;;;16.53;100.00;98473.47;5047427;28;20021;-61
2023/08/01 08:29:59;;;;;;;3.85;2.97;;;;;;;16.66;100.00;98470.03;5047471;28;20048;-61
2023/08/01 08:32:25;;;;;;;4.63;3.22;;;;;;;16.80;100.00;98470.00;5047514;28;20048;-60
2023/08/01 08:34:50;;;;;;;5.97;2.50;;;;;;;17.01;100.00;98471.28;5047295;28;20159;-61
2023/08/01 08:37:15;;;;;;;7.43;2.75;;;;;;;17.16;100.00;98465.03;5047354;28;20025;-61
2023/08/01 08:39:41;;;;;;;4.97;3.78;;;;;;;17.15;99.40;98467.75;5029094;28;20025;-61
2023/08/01 08:42:06;;;;;;;8.65;2.65;;;;;;;17.08;97.92;98468.19;5046908;28;20025;-61
2023/08/01 08:44:35;;;;;;;4.20;2.67;;;;;;;17.07;98.62;98458.63;5046347;28;20057;-60
2023/08/01 08:47:06;;;;;;;3.50;2.60;;;;;;;17.15;98.57;98466.00;5029242;28;20029;-61
2023/08/01 08:49:32;;;;;;;2.83;2.53;;;;;;;17.28;100.00;98458.16;5046793;28;20025;-61
2023/08/01 08:51:58;;;;;;;4.90;2.65;;;;;;;17.48;99.41;98458.56;5046979;28;20051;-61
2023/08/01 08:54:24;;;;;;;4.40;2.97;;;;;;;17.52;98.94;98457.41;5028762;28;20373;-61
2023/08/01 08:56:50;;;;;;;2.53;2.13;;;;;;;17.50;95.42;98459.28;5046982;28;20025;-60
2023/08/01 08:59:16;;;;;;;2.95;2.33;;;;;;;17.49;97.26;98457.63;5047152;28;20029;-61
2023/08/01 09:01:41;;;;;;;4.88;2.20;;;;;;;17.63;98.03;98455.81;5046878;28;20090;-61
2023/08/01 09:04:07;;;;;;;1.98;1.88;;;;;;;17.75;97.83;98460.22;5046552;28;20025;-61
2023/08/01 09:06:54;;;;;;;2.75;2.22;;;;;;;17.99;98.53;98461.22;5046713;28;20088;-61
2023/08/01 09:09:21;;;;;;;5.38;2.83;;;;;;;18.15;94.98;98458.34;5046736;28;20473;-61
2023/08/01 09:11:50;;;;;;;5.38;2.65;;;;;;;18.03;94.86;98455.66;5046743;28;20083;-61
2023/08/01 09:14:16;;;;;;;3.85;2.38;;;;;;;17.94;94.88;98459.75;5028924;28;20045;-61
2023/08/01 09:16:43;;;;;;;3.92;2.45;;;;;;;17.91;94.56;98459.13;5029050;28;20021;-61
2023/08/01 09:19:09;;;;;;;3.67;3.03;;;;;;;17.86;93.70;98456.00;5046554;28;20028;-61
2023/08/01 09:21:38;;;;;;;8.77;2.67;;;;;;;17.83;92.42;98457.03;5029002;28;20037;-61
2023/08/01 09:24:15;;;;;;;4.68;2.60;;;;;;;17.96;93.32;98457.88;5045099;28;20056;-61
2023/08/01 09:26:41;;;;;;;3.50;2.40;;;;;;;18.43;95.44;98466.91;5046564;28;20029;-61
2023/08/01 09:29:07;;;;;;;3.47;2.33;;;;;;;19.07;95.13;98460.44;5046372;28;20053;-62
2023/08/01 09:31:34;;;;;;;7.03;3.38;;;;;;;19.82;94.76;98459.25;5046482;28;20077;-62
2023/08/01 09:34:01;;;;;;;3.80;3.15;;;;;;;20.76;94.00;98454.50;5046236;28;20036;-62
2023/08/01 09:36:27;;;;;;;5.13;2.67;;;;;;;21.17;91.74;98447.59;5046415;28;20025;-62
2023/08/01 09:38:58;;;;;;;8.05;3.03;;;;;;;21.15;85.14;98456.63;5046278;28;20024;-61
2023/08/01 09:41:24;;;;;;;5.20;2.60;;;;;;;20.81;81.16;98450.50;5046643;28;20044;-62
2023/08/01 09:43:49;;;;;;;4.43;2.35;;;;;;;20.36;80.57;98456.81;5046230;28;20473;-61
2023/08/01 09:46:15;;;;;;;2.50;2.03;;;;;;;19.98;78.99;98448.34;5046231;28;20030;-61
2023/08/01 09:48:41;;;;;;;4.07;2.30;;;;;;;20.07;80.37;98454.69;5045934;28;20081;-61
2023/08/01 09:51:11;;;;;;;3.50;1.85;;;;;;;20.38;83.66;98457.53;5046379;28;20022;-61
2023/08/01 09:53:55;;;;;;;2.67;2.10;;;;;;;21.14;82.73;98460.19;5046233;28;20107;-61
2023/08/01 09:56:23;;;;;;;6.60;2.10;;;;;;;21.41;80.21;98458.81;5045057;28;20051;-61
2023/08/01 09:58:50;;;;;;;2.30;1.65;;;;;;;21.12;79.57;98465.59;5046136;28;20021;-61
2023/08/01 10:01:17;;;;;;;2.03;1.58;;;;;;;20.71;78.85;98457.50;5044933;28;20052;-62
2023/08/01 10:03:48;;;;;;;4.05;2.05;;;;;;;20.28;79.95;98457.41;5044960;28;20022;-60
2023/08/01 10:06:19;;;;;;;2.40;1.65;;;;;;;19.86;78.01;98449.28;5044605;28;20036;-61
2023/08/01 10:08:45;;;;;;;3.40;2.43;;;;;;;19.63;76.43;98452.78;5045812;28;20056;-61
2023/08/01 10:11:14;;;;;;;4.10;1.60;;;;;;;19.34;77.16;98452.41;5045797;28;20037;-62
2023/08/01 10:13:41;;;;;;;1.58;1.33;;;;;;;19.09;74.56;98455.09;5045685;28;20051;-62
2023/08/01 10:16:07;;;;;;;3.15;2.05;;;;;;;18.77;76.21;98461.78;5045730;28;20083;-61
2023/08/01 10:18:34;;;;;;;5.03;1.63;;;;;;;18.60;76.87;98459.56;5045548;28;20032;-62
2023/08/01 10:21:01;;;;;;;2.38;1.98;;;;;;;18.56;76.22;98456.34;5045642;28;20028;-60
2023/08/01 10:23:27;;;;;;;2.03;1.27;;;;;;;18.62;76.21;98448.00;5027831;28;20021;-61
2023/08/01 10:25:53;;;;;;;6.43;1.58;;;;;;;18.51;76.59;98461.09;5045355;28;20029;-61
2023/08/01 10:28:18;;;;;;;3.00;1.30;;;;;;;18.51;77.56;98455.81;5044837;28;20359;-60
2023/08/01 10:30:44;;;;;;;2.22;1.55;;;;;;;18.58;79.70;98457.91;5045342;28;20466;-61
2023/08/01 10:33:12;;;;;;;3.65;1.65;;;;;;;18.89;82.25;98446.91;5045421;28;20028;-61
2023/08/01 10:35:39;;;;;;;2.63;1.60;;;;;;;19.27;82.33;98439.72;5027851;28;20432;-61
2023/08/01 10:38:09;;;;;;;3.25;1.73;;;;;;;19.64;80.53;98448.34;5045010;28;20021;-62
2023/08/01 10:40:42;;;;;;;2.97;1.40;;;;;;;19.85;79.01;98450.25;5044645;28;20025;-61
2023/08/01 10:43:24;;;;;;;2.45;1.25;;;;;;;19.85;73.30;98448.47;5044079;28;20022;-62
2023/08/01 10:46:03;;;;;;;2.28;1.73;;;;;;;19.73;72.24;98447.63;5044749;28;20017;-62
2023/08/01 10:48:29;;;;;;;3.95;1.63;;;;;;;19.66;75.78;98443.81;5044980;28;20496;-61
2023/08/01 10:50:57;;;;;;;2.70;1.50;;;;;;;19.93;76.93;98446.09;5045156;28;20045;-59
2023/08/01 10:53:23;;;;;;;2.60;1.38;;;;;;;20.10;76.01;98440.44;5043723;28;20021;-60
2023/08/01 10:55:48;;;;;;;3.35;1.77;;;;;;;20.04;77.31;98444.41;5044627;28;20477;-60
2023/08/01 10:58:15;;;;;;;5.30;1.92;;;;;;;19.87;76.84;98441.28;5044963;28;20044;-60
2023/08/01 11:00:42;;;;;;;1.42;0.90;;;;;;;19.76;77.62;98447.38;5045162;28;20026;-59
2023/08/01 11:03:07;;;;;;;1.33;1.02;;;;;;;19.68;74.14;98440.09;5045046;28;20056;-60
2023/08/01 11:05:33;;;;;;;2.03;1.52;;;;;;;19.56;74.62;98438.44;5045054;28;20026;-61
2023/08/01 11:08:00;;;;;;;2.88;2.00;;;;;;;19.48;74.73;98433.75;5045953;28;20045;-59
2023/08/01 11:10:27;;;;;;;2.00;1.17;;;;;;;19.46;74.22;98430.41;5049054;28;20461;-60
2023/08/01 11:12:55;;;;;;;4.03;1.42;;;;;;;19.39;73.11;98431.84;5048960;28;20026;-59
2023/08/01 11:15:21;;;;;;;5.43;1.42;;;;;;;19.37;75.08;98431.97;5048956;28;20053;-61
2023/08/01 11:17:49;;;;;;;5.00;1.45;;;;;;;19.40;71.54;98436.16;5047811;28;20067;-60
2023/08/01 11:20:16;;;;;;;1.40;1.23;;;;;;;19.30;72.89;98436.84;5049022;28;20215;-60